sensor_id;sensor_type;location;lat;lon;timestamp;temperature;humidity
70269;DHT22;58514;48.398;-4.274;2022-07-30T00:01:33;20.10;61.20
70269;DHT22;58514;48.398;-4.274;2022-07-30T00:03:58;20.10;61.40
70269;DHT22;58514;48.398;-4.274;2022-07-30T00:06:24;20.10;61.70
70269;DHT22;58514;48.398;-4.274;2022-07-30T00:08:49;20.00;61.70
70269;DHT22;58514;48.398;-4.274;2022-07-30T00:11:15;20.00;61.80
70269;DHT22;58514;48.398;-4.274;2022-07-30T00:13:40;20.00;62.10
70269;DHT22;58514;48.398;-4.274;2022-07-30T00:16:06;20.00;62.10
70269;DHT22;58514;48.398;-4.274;2022-07-30T00:18:32;20.00;62.50
70269;DHT22;58514;48.398;-4.274;2022-07-30T00:20:57;20.00;62.40
70269;DHT22;58514;48.398;-4.274;2022-07-30T00:23:23;20.00;62.80
70269;DHT22;58514;48.398;-4.274;2022-07-30T00:25:48;20.10;63.20
70269;DHT22;58514;48.398;-4.274;2022-07-30T00:28:14;20.10;63.20
70269;DHT22;58514;48.398;-4.274;2022-07-30T00:30:39;20.10;63.40
70269;DHT22;58514;48.398;-4.274;2022-07-30T00:33:05;20.10;63.30
70269;DHT22;58514;48.398;-4.274;2022-07-30T00:35:31;20.10;63.40
70269;DHT22;58514;48.398;-4.274;2022-07-30T00:37:56;20.10;63.40
70269;DHT22;58514;48.398;-4.274;2022-07-30T00:40:22;20.10;63.80
70269;DHT22;58514;48.398;-4.274;2022-07-30T00:42:48;20.10;64.10
70269;DHT22;58514;48.398;-4.274;2022-07-30T00:45:14;20.10;64.00
70269;DHT22;58514;48.398;-4.274;2022-07-30T00:47:40;20.10;63.80
70269;DHT22;58514;48.398;-4.274;2022-07-30T00:50:07;20.10;64.00
70269;DHT22;58514;48.398;-4.274;2022-07-30T00:52:33;20.10;64.30
70269;DHT22;58514;48.398;-4.274;2022-07-30T00:54:59;20.10;64.30
70269;DHT22;58514;48.398;-4.274;2022-07-30T00:57:25;20.10;64.70
70269;DHT22;58514;48.398;-4.274;2022-07-30T00:59:51;20.10;64.60
70269;DHT22;58514;48.398;-4.274;2022-07-30T01:02:17;20.10;64.70
70269;DHT22;58514;48.398;-4.274;2022-07-30T01:04:43;20.10;64.70
70269;DHT22;58514;48.398;-4.274;2022-07-30T01:07:09;20.10;65.00
70269;DHT22;58514;48.398;-4.274;2022-07-30T01:09:35;20.10;64.90
70269;DHT22;58514;48.398;-4.274;2022-07-30T01:12:01;20.10;65.00
70269;DHT22;58514;48.398;-4.274;2022-07-30T01:14:27;20.10;65.10
70269;DHT22;58514;48.398;-4.274;2022-07-30T01:16:52;20.10;65.00
70269;DHT22;58514;48.398;-4.274;2022-07-30T01:19:19;20.10;65.20
70269;DHT22;58514;48.398;-4.274;2022-07-30T01:25:00;20.00;64.90
70269;DHT22;58514;48.398;-4.274;2022-07-30T01:27:32;19.90;65.10
70269;DHT22;58514;48.398;-4.274;2022-07-30T01:29:58;19.90;65.40
70269;DHT22;58514;48.398;-4.274;2022-07-30T01:32:24;19.80;65.60
70269;DHT22;58514;48.398;-4.274;2022-07-30T01:34:50;19.80;65.40
70269;DHT22;58514;48.398;-4.274;2022-07-30T01:37:17;19.70;65.50
70269;DHT22;58514;48.398;-4.274;2022-07-30T01:39:43;19.60;65.40
70269;DHT22;58514;48.398;-4.274;2022-07-30T01:42:09;19.60;65.30
70269;DHT22;58514;48.398;-4.274;2022-07-30T01:44:35;19.60;65.60
70269;DHT22;58514;48.398;-4.274;2022-07-30T01:47:02;19.50;65.60
70269;DHT22;58514;48.398;-4.274;2022-07-30T01:49:29;19.50;65.80
70269;DHT22;58514;48.398;-4.274;2022-07-30T01:51:55;19.50;65.80
70269;DHT22;58514;48.398;-4.274;2022-07-30T01:54:22;19.40;66.40
70269;DHT22;58514;48.398;-4.274;2022-07-30T01:56:48;19.40;66.20
70269;DHT22;58514;48.398;-4.274;2022-07-30T01:59:16;19.40;66.70
70269;DHT22;58514;48.398;-4.274;2022-07-30T02:01:42;19.40;67.20
70269;DHT22;58514;48.398;-4.274;2022-07-30T02:04:08;19.40;67.20
70269;DHT22;58514;48.398;-4.274;2022-07-30T02:06:37;19.40;67.20
70269;DHT22;58514;48.398;-4.274;2022-07-30T02:09:04;19.40;67.00
70269;DHT22;58514;48.398;-4.274;2022-07-30T02:11:31;19.40;66.90
70269;DHT22;58514;48.398;-4.274;2022-07-30T02:14:27;19.40;67.20
70269;DHT22;58514;48.398;-4.274;2022-07-30T02:16:54;19.40;67.10
70269;DHT22;58514;48.398;-4.274;2022-07-30T02:19:28;19.40;67.70
70269;DHT22;58514;48.398;-4.274;2022-07-30T02:21:57;19.40;67.90
70269;DHT22;58514;48.398;-4.274;2022-07-30T02:24:25;19.50;68.00
70269;DHT22;58514;48.398;-4.274;2022-07-30T02:26:53;19.50;68.00
70269;DHT22;58514;48.398;-4.274;2022-07-30T02:29:20;19.50;68.10
70269;DHT22;58514;48.398;-4.274;2022-07-30T02:31:47;19.50;68.20
70269;DHT22;58514;48.398;-4.274;2022-07-30T02:34:12;19.60;68.30
70269;DHT22;58514;48.398;-4.274;2022-07-30T02:36:39;19.50;68.40
70269;DHT22;58514;48.398;-4.274;2022-07-30T02:39:06;19.50;68.30
70269;DHT22;58514;48.398;-4.274;2022-07-30T02:41:32;19.50;68.30
70269;DHT22;58514;48.398;-4.274;2022-07-30T02:44:00;19.60;68.60
70269;DHT22;58514;48.398;-4.274;2022-07-30T02:46:27;19.60;69.00
70269;DHT22;58514;48.398;-4.274;2022-07-30T02:48:52;19.60;68.80
70269;DHT22;58514;48.398;-4.274;2022-07-30T02:51:19;19.60;69.30
70269;DHT22;58514;48.398;-4.274;2022-07-30T02:53:45;19.60;69.20
70269;DHT22;58514;48.398;-4.274;2022-07-30T02:56:12;19.60;69.60
70269;DHT22;58514;48.398;-4.274;2022-07-30T02:58:37;19.60;69.30
70269;DHT22;58514;48.398;-4.274;2022-07-30T03:01:04;19.60;69.60
70269;DHT22;58514;48.398;-4.274;2022-07-30T03:03:30;19.60;69.40
70269;DHT22;58514;48.398;-4.274;2022-07-30T03:05:56;19.60;69.70
70269;DHT22;58514;48.398;-4.274;2022-07-30T03:08:22;19.70;69.90
70269;DHT22;58514;48.398;-4.274;2022-07-30T03:10:48;19.70;69.80
70269;DHT22;58514;48.398;-4.274;2022-07-30T03:13:14;19.80;69.90
70269;DHT22;58514;48.398;-4.274;2022-07-30T03:15:42;19.80;70.00
70269;DHT22;58514;48.398;-4.274;2022-07-30T03:18:11;19.80;69.80
70269;DHT22;58514;48.398;-4.274;2022-07-30T03:20:37;19.90;70.00
70269;DHT22;58514;48.398;-4.274;2022-07-30T03:23:03;19.90;69.80
70269;DHT22;58514;48.398;-4.274;2022-07-30T03:25:29;19.90;70.10
70269;DHT22;58514;48.398;-4.274;2022-07-30T03:27:56;19.90;69.90
70269;DHT22;58514;48.398;-4.274;2022-07-30T03:30:24;19.90;70.50
70269;DHT22;58514;48.398;-4.274;2022-07-30T03:32:50;20.00;71.20
70269;DHT22;58514;48.398;-4.274;2022-07-30T03:35:16;20.00;70.60
70269;DHT22;58514;48.398;-4.274;2022-07-30T03:37:42;20.00;70.50
70269;DHT22;58514;48.398;-4.274;2022-07-30T03:40:08;20.00;70.80
70269;DHT22;58514;48.398;-4.274;2022-07-30T03:42:34;20.00;70.30
70269;DHT22;58514;48.398;-4.274;2022-07-30T03:45:00;20.00;70.60
70269;DHT22;58514;48.398;-4.274;2022-07-30T03:47:27;20.00;71.20
70269;DHT22;58514;48.398;-4.274;2022-07-30T03:49:52;20.00;70.90
70269;DHT22;58514;48.398;-4.274;2022-07-30T03:52:18;20.00;71.00
70269;DHT22;58514;48.398;-4.274;2022-07-30T03:54:44;20.00;71.00
70269;DHT22;58514;48.398;-4.274;2022-07-30T03:57:10;20.00;71.20
70269;DHT22;58514;48.398;-4.274;2022-07-30T03:59:35;20.00;71.40
70269;DHT22;58514;48.398;-4.274;2022-07-30T04:02:03;20.00;71.30
70269;DHT22;58514;48.398;-4.274;2022-07-30T04:04:28;20.00;71.40
70269;DHT22;58514;48.398;-4.274;2022-07-30T04:06:55;20.00;71.20
70269;DHT22;58514;48.398;-4.274;2022-07-30T04:09:21;20.10;72.20
70269;DHT22;58514;48.398;-4.274;2022-07-30T04:11:46;20.00;72.10
70269;DHT22;58514;48.398;-4.274;2022-07-30T04:14:12;20.00;71.30
70269;DHT22;58514;48.398;-4.274;2022-07-30T04:19:24;20.00;71.70
70269;DHT22;58514;48.398;-4.274;2022-07-30T04:21:51;20.00;71.50
70269;DHT22;58514;48.398;-4.274;2022-07-30T04:24:18;20.00;71.90
70269;DHT22;58514;48.398;-4.274;2022-07-30T04:26:44;20.00;71.80
70269;DHT22;58514;48.398;-4.274;2022-07-30T04:29:10;20.00;71.60
70269;DHT22;58514;48.398;-4.274;2022-07-30T04:31:36;19.90;72.00
70269;DHT22;58514;48.398;-4.274;2022-07-30T04:34:02;20.00;72.10
70269;DHT22;58514;48.398;-4.274;2022-07-30T04:36:29;19.90;72.10
70269;DHT22;58514;48.398;-4.274;2022-07-30T04:38:55;19.90;71.90
70269;DHT22;58514;48.398;-4.274;2022-07-30T04:41:21;19.90;72.00
70269;DHT22;58514;48.398;-4.274;2022-07-30T04:43:46;19.90;71.80
70269;DHT22;58514;48.398;-4.274;2022-07-30T04:46:12;19.90;72.20
70269;DHT22;58514;48.398;-4.274;2022-07-30T04:48:38;19.90;71.90
70269;DHT22;58514;48.398;-4.274;2022-07-30T04:51:04;19.90;72.20
70269;DHT22;58514;48.398;-4.274;2022-07-30T04:53:30;19.90;72.20
70269;DHT22;58514;48.398;-4.274;2022-07-30T04:55:57;19.80;72.20
70269;DHT22;58514;48.398;-4.274;2022-07-30T04:58:23;19.80;72.40
70269;DHT22;58514;48.398;-4.274;2022-07-30T05:00:50;19.80;72.50
70269;DHT22;58514;48.398;-4.274;2022-07-30T05:03:16;19.80;72.50
70269;DHT22;58514;48.398;-4.274;2022-07-30T05:05:43;19.80;72.70
70269;DHT22;58514;48.398;-4.274;2022-07-30T05:08:08;19.80;72.50
70269;DHT22;58514;48.398;-4.274;2022-07-30T05:10:34;19.80;72.70
70269;DHT22;58514;48.398;-4.274;2022-07-30T05:13:00;19.70;72.70
70269;DHT22;58514;48.398;-4.274;2022-07-30T05:15:26;19.70;72.70
70269;DHT22;58514;48.398;-4.274;2022-07-30T05:17:51;19.70;72.70
70269;DHT22;58514;48.398;-4.274;2022-07-30T05:20:17;19.70;73.00
70269;DHT22;58514;48.398;-4.274;2022-07-30T05:22:42;19.70;72.80
70269;DHT22;58514;48.398;-4.274;2022-07-30T05:25:08;19.70;72.90
70269;DHT22;58514;48.398;-4.274;2022-07-30T05:27:33;19.70;73.00
70269;DHT22;58514;48.398;-4.274;2022-07-30T05:29:59;19.70;73.20
70269;DHT22;58514;48.398;-4.274;2022-07-30T05:32:24;19.70;73.20
70269;DHT22;58514;48.398;-4.274;2022-07-30T05:34:50;19.70;73.20
70269;DHT22;58514;48.398;-4.274;2022-07-30T05:37:15;19.70;73.10
70269;DHT22;58514;48.398;-4.274;2022-07-30T05:39:41;19.70;73.20
70269;DHT22;58514;48.398;-4.274;2022-07-30T05:42:07;19.70;73.60
70269;DHT22;58514;48.398;-4.274;2022-07-30T05:44:32;19.70;73.90
70269;DHT22;58514;48.398;-4.274;2022-07-30T05:46:58;19.70;74.80
70269;DHT22;58514;48.398;-4.274;2022-07-30T05:49:25;19.70;75.60
70269;DHT22;58514;48.398;-4.274;2022-07-30T05:51:50;19.70;74.00
70269;DHT22;58514;48.398;-4.274;2022-07-30T05:54:16;19.60;75.00
70269;DHT22;58514;48.398;-4.274;2022-07-30T05:56:41;19.70;74.50
70269;DHT22;58514;48.398;-4.274;2022-07-30T05:59:07;19.70;74.10
70269;DHT22;58514;48.398;-4.274;2022-07-30T06:01:32;19.70;75.40
70269;DHT22;58514;48.398;-4.274;2022-07-30T06:03:58;19.80;74.20
70269;DHT22;58514;48.398;-4.274;2022-07-30T06:06:23;19.70;74.00
70269;DHT22;58514;48.398;-4.274;2022-07-30T06:08:49;19.80;74.70
70269;DHT22;58514;48.398;-4.274;2022-07-30T06:11:15;19.80;74.60
70269;DHT22;58514;48.398;-4.274;2022-07-30T06:13:40;19.80;74.50
70269;DHT22;58514;48.398;-4.274;2022-07-30T06:16:06;19.80;74.60
70269;DHT22;58514;48.398;-4.274;2022-07-30T06:18:31;19.80;73.80
70269;DHT22;58514;48.398;-4.274;2022-07-30T06:20:57;19.80;74.00
70269;DHT22;58514;48.398;-4.274;2022-07-30T06:23:23;19.80;74.20
70269;DHT22;58514;48.398;-4.274;2022-07-30T06:25:48;19.90;74.50
70269;DHT22;58514;48.398;-4.274;2022-07-30T06:28:15;19.90;75.00
70269;DHT22;58514;48.398;-4.274;2022-07-30T06:30:40;19.90;74.80
70269;DHT22;58514;48.398;-4.274;2022-07-30T06:33:06;19.90;75.00
70269;DHT22;58514;48.398;-4.274;2022-07-30T06:35:32;20.00;74.90
70269;DHT22;58514;48.398;-4.274;2022-07-30T06:37:58;20.10;75.10
70269;DHT22;58514;48.398;-4.274;2022-07-30T06:40:24;20.10;75.20
70269;DHT22;58514;48.398;-4.274;2022-07-30T06:42:50;20.20;75.50
70269;DHT22;58514;48.398;-4.274;2022-07-30T06:45:15;20.20;74.70
70269;DHT22;58514;48.398;-4.274;2022-07-30T06:47:41;20.20;75.50
70269;DHT22;58514;48.398;-4.274;2022-07-30T06:50:07;20.20;74.00
70269;DHT22;58514;48.398;-4.274;2022-07-30T06:52:32;20.20;74.90
70269;DHT22;58514;48.398;-4.274;2022-07-30T06:54:58;20.30;75.10
70269;DHT22;58514;48.398;-4.274;2022-07-30T06:57:23;20.30;74.90
70269;DHT22;58514;48.398;-4.274;2022-07-30T06:59:49;20.40;74.50
70269;DHT22;58514;48.398;-4.274;2022-07-30T07:02:15;20.40;73.80
70269;DHT22;58514;48.398;-4.274;2022-07-30T07:04:40;20.50;73.80
70269;DHT22;58514;48.398;-4.274;2022-07-30T07:07:06;20.50;73.80
70269;DHT22;58514;48.398;-4.274;2022-07-30T07:09:31;20.50;73.60
70269;DHT22;58514;48.398;-4.274;2022-07-30T07:11:57;20.60;73.40
70269;DHT22;58514;48.398;-4.274;2022-07-30T07:14:23;20.60;73.50
70269;DHT22;58514;48.398;-4.274;2022-07-30T07:16:48;20.60;73.30
70269;DHT22;58514;48.398;-4.274;2022-07-30T07:19:14;20.70;73.60
70269;DHT22;58514;48.398;-4.274;2022-07-30T07:21:40;20.70;73.40
70269;DHT22;58514;48.398;-4.274;2022-07-30T07:24:06;20.70;73.50
70269;DHT22;58514;48.398;-4.274;2022-07-30T07:26:31;20.70;73.20
70269;DHT22;58514;48.398;-4.274;2022-07-30T07:28:57;20.70;73.20
70269;DHT22;58514;48.398;-4.274;2022-07-30T07:31:23;20.70;73.20
70269;DHT22;58514;48.398;-4.274;2022-07-30T07:33:48;20.80;73.50
70269;DHT22;58514;48.398;-4.274;2022-07-30T07:36:14;20.80;73.30
70269;DHT22;58514;48.398;-4.274;2022-07-30T07:38:40;20.80;73.40
70269;DHT22;58514;48.398;-4.274;2022-07-30T07:41:05;20.70;73.50
70269;DHT22;58514;48.398;-4.274;2022-07-30T07:43:31;20.70;74.00
70269;DHT22;58514;48.398;-4.274;2022-07-30T07:45:57;20.70;73.80
70269;DHT22;58514;48.398;-4.274;2022-07-30T07:48:22;20.70;73.40
70269;DHT22;58514;48.398;-4.274;2022-07-30T07:50:48;20.70;73.50
70269;DHT22;58514;48.398;-4.274;2022-07-30T07:53:14;20.70;73.50
70269;DHT22;58514;48.398;-4.274;2022-07-30T07:55:40;20.70;73.40
70269;DHT22;58514;48.398;-4.274;2022-07-30T07:58:05;20.80;73.40
70269;DHT22;58514;48.398;-4.274;2022-07-30T08:00:31;20.90;73.30
70269;DHT22;58514;48.398;-4.274;2022-07-30T08:02:56;20.80;73.50
70269;DHT22;58514;48.398;-4.274;2022-07-30T08:05:22;20.80;73.40
70269;DHT22;58514;48.398;-4.274;2022-07-30T08:07:47;20.80;73.10
70269;DHT22;58514;48.398;-4.274;2022-07-30T08:10:13;20.80;73.40
70269;DHT22;58514;48.398;-4.274;2022-07-30T08:12:40;20.70;73.00
70269;DHT22;58514;48.398;-4.274;2022-07-30T08:15:06;20.80;73.40
70269;DHT22;58514;48.398;-4.274;2022-07-30T08:17:38;20.80;73.90
70269;DHT22;58514;48.398;-4.274;2022-07-30T08:20:04;20.80;73.20
70269;DHT22;58514;48.398;-4.274;2022-07-30T08:22:29;20.90;73.40
70269;DHT22;58514;48.398;-4.274;2022-07-30T08:24:55;20.90;73.20
70269;DHT22;58514;48.398;-4.274;2022-07-30T08:27:20;20.90;73.50
70269;DHT22;58514;48.398;-4.274;2022-07-30T08:29:46;20.90;73.20
70269;DHT22;58514;48.398;-4.274;2022-07-30T08:32:12;20.90;73.10
70269;DHT22;58514;48.398;-4.274;2022-07-30T08:34:37;21.00;73.70
70269;DHT22;58514;48.398;-4.274;2022-07-30T08:37:03;21.00;73.40
70269;DHT22;58514;48.398;-4.274;2022-07-30T08:39:28;21.00;73.70
70269;DHT22;58514;48.398;-4.274;2022-07-30T08:41:54;21.00;73.20
70269;DHT22;58514;48.398;-4.274;2022-07-30T08:44:20;21.10;73.70
70269;DHT22;58514;48.398;-4.274;2022-07-30T08:46:47;21.10;73.70
70269;DHT22;58514;48.398;-4.274;2022-07-30T08:49:13;21.10;73.30
70269;DHT22;58514;48.398;-4.274;2022-07-30T08:51:40;21.10;73.30
70269;DHT22;58514;48.398;-4.274;2022-07-30T08:54:05;21.10;73.50
70269;DHT22;58514;48.398;-4.274;2022-07-30T08:56:31;21.00;73.20
70269;DHT22;58514;48.398;-4.274;2022-07-30T08:58:58;21.00;73.60
70269;DHT22;58514;48.398;-4.274;2022-07-30T09:01:24;21.00;73.10
70269;DHT22;58514;48.398;-4.274;2022-07-30T09:03:49;21.10;74.20
70269;DHT22;58514;48.398;-4.274;2022-07-30T09:06:15;21.10;73.90
70269;DHT22;58514;48.398;-4.274;2022-07-30T09:08:40;21.10;73.60
70269;DHT22;58514;48.398;-4.274;2022-07-30T09:11:06;21.10;73.70
70269;DHT22;58514;48.398;-4.274;2022-07-30T09:13:32;21.20;74.40
70269;DHT22;58514;48.398;-4.274;2022-07-30T09:16:06;21.30;74.10
70269;DHT22;58514;48.398;-4.274;2022-07-30T09:18:39;21.40;74.00
70269;DHT22;58514;48.398;-4.274;2022-07-30T09:21:20;21.60;73.90
70269;DHT22;58514;48.398;-4.274;2022-07-30T09:23:58;21.70;73.10
70269;DHT22;58514;48.398;-4.274;2022-07-30T09:26:24;21.70;72.50
70269;DHT22;58514;48.398;-4.274;2022-07-30T09:28:49;21.70;72.50
70269;DHT22;58514;48.398;-4.274;2022-07-30T09:31:15;21.70;72.10
70269;DHT22;58514;48.398;-4.274;2022-07-30T09:33:42;21.70;72.40
70269;DHT22;58514;48.398;-4.274;2022-07-30T09:36:09;21.70;72.30
70269;DHT22;58514;48.398;-4.274;2022-07-30T09:38:49;21.60;72.40
70269;DHT22;58514;48.398;-4.274;2022-07-30T09:41:16;21.60;72.50
70269;DHT22;58514;48.398;-4.274;2022-07-30T09:43:49;21.60;72.40
70269;DHT22;58514;48.398;-4.274;2022-07-30T09:46:15;21.60;72.60
70269;DHT22;58514;48.398;-4.274;2022-07-30T09:48:40;21.60;72.60
70269;DHT22;58514;48.398;-4.274;2022-07-30T09:51:06;21.70;72.50
70269;DHT22;58514;48.398;-4.274;2022-07-30T09:53:32;21.70;72.60
70269;DHT22;58514;48.398;-4.274;2022-07-30T09:55:58;21.80;72.80
70269;DHT22;58514;48.398;-4.274;2022-07-30T09:58:24;21.90;73.20
70269;DHT22;58514;48.398;-4.274;2022-07-30T10:01:01;22.00;72.80
70269;DHT22;58514;48.398;-4.274;2022-07-30T10:03:27;22.20;72.50
70269;DHT22;58514;48.398;-4.274;2022-07-30T10:05:53;22.30;72.60
70269;DHT22;58514;48.398;-4.274;2022-07-30T10:08:19;22.40;72.40
70269;DHT22;58514;48.398;-4.274;2022-07-30T10:10:45;22.50;72.10
70269;DHT22;58514;48.398;-4.274;2022-07-30T10:13:11;22.50;71.00
70269;DHT22;58514;48.398;-4.274;2022-07-30T10:15:38;22.50;70.50
70269;DHT22;58514;48.398;-4.274;2022-07-30T10:18:04;22.40;71.30
70269;DHT22;58514;48.398;-4.274;2022-07-30T10:20:30;22.50;71.70
70269;DHT22;58514;48.398;-4.274;2022-07-30T10:22:56;22.60;71.60
70269;DHT22;58514;48.398;-4.274;2022-07-30T10:25:22;22.60;71.60
70269;DHT22;58514;48.398;-4.274;2022-07-30T10:27:48;22.70;71.20
70269;DHT22;58514;48.398;-4.274;2022-07-30T10:30:14;22.70;71.00
70269;DHT22;58514;48.398;-4.274;2022-07-30T10:32:40;22.70;70.80
70269;DHT22;58514;48.398;-4.274;2022-07-30T10:35:07;22.70;70.50
70269;DHT22;58514;48.398;-4.274;2022-07-30T10:37:33;22.70;70.60
70269;DHT22;58514;48.398;-4.274;2022-07-30T10:40:04;22.60;70.50
70269;DHT22;58514;48.398;-4.274;2022-07-30T10:47:40;22.50;70.90
70269;DHT22;58514;48.398;-4.274;2022-07-30T10:50:17;22.50;71.00
70269;DHT22;58514;48.398;-4.274;2022-07-30T10:52:50;22.60;71.30
70269;DHT22;58514;48.398;-4.274;2022-07-30T10:55:17;22.60;71.40
70269;DHT22;58514;48.398;-4.274;2022-07-30T11:03:22;22.80;71.80
70269;DHT22;58514;48.398;-4.274;2022-07-30T11:05:48;22.90;71.50
70269;DHT22;58514;48.398;-4.274;2022-07-30T11:10:52;23.20;69.80
70269;DHT22;58514;48.398;-4.274;2022-07-30T11:13:17;23.20;69.20
70269;DHT22;58514;48.398;-4.274;2022-07-30T11:16:03;23.20;68.90
70269;DHT22;58514;48.398;-4.274;2022-07-30T11:18:29;23.10;68.90
70269;DHT22;58514;48.398;-4.274;2022-07-30T11:23:40;23.00;69.70
70269;DHT22;58514;48.398;-4.274;2022-07-30T11:26:05;23.00;70.10
70269;DHT22;58514;48.398;-4.274;2022-07-30T11:31:03;23.10;69.80
70269;DHT22;58514;48.398;-4.274;2022-07-30T11:33:29;23.10;69.60
70269;DHT22;58514;48.398;-4.274;2022-07-30T11:36:08;23.00;69.50
70269;DHT22;58514;48.398;-4.274;2022-07-30T11:38:53;22.90;70.10
70269;DHT22;58514;48.398;-4.274;2022-07-30T11:41:19;22.90;70.20
70269;DHT22;58514;48.398;-4.274;2022-07-30T11:43:45;22.90;70.10
70269;DHT22;58514;48.398;-4.274;2022-07-30T11:46:17;22.80;70.60
70269;DHT22;58514;48.398;-4.274;2022-07-30T11:48:56;22.90;71.00
70269;DHT22;58514;48.398;-4.274;2022-07-30T11:51:22;22.90;70.90
70269;DHT22;58514;48.398;-4.274;2022-07-30T11:54:03;23.00;70.80
70269;DHT22;58514;48.398;-4.274;2022-07-30T11:56:29;23.00;71.20
70269;DHT22;58514;48.398;-4.274;2022-07-30T12:01:27;23.20;70.80
70269;DHT22;58514;48.398;-4.274;2022-07-30T12:03:55;23.30;70.30
70269;DHT22;58514;48.398;-4.274;2022-07-30T12:06:20;23.30;69.10
70269;DHT22;58514;48.398;-4.274;2022-07-30T12:08:47;23.20;69.30
70269;DHT22;58514;48.398;-4.274;2022-07-30T12:11:13;23.20;69.50
70269;DHT22;58514;48.398;-4.274;2022-07-30T12:13:39;23.20;70.20
70269;DHT22;58514;48.398;-4.274;2022-07-30T12:16:08;23.30;70.40
70269;DHT22;58514;48.398;-4.274;2022-07-30T12:18:34;23.40;69.80
70269;DHT22;58514;48.398;-4.274;2022-07-30T12:21:00;23.40;69.30
70269;DHT22;58514;48.398;-4.274;2022-07-30T12:23:26;23.40;69.90
70269;DHT22;58514;48.398;-4.274;2022-07-30T12:25:52;23.50;70.30
70269;DHT22;58514;48.398;-4.274;2022-07-30T12:28:19;23.50;70.30
70269;DHT22;58514;48.398;-4.274;2022-07-30T12:30:45;23.50;69.60
70269;DHT22;58514;48.398;-4.274;2022-07-30T12:33:10;23.40;69.40
70269;DHT22;58514;48.398;-4.274;2022-07-30T12:38:14;23.30;70.20
70269;DHT22;58514;48.398;-4.274;2022-07-30T12:41:00;23.50;71.50
70269;DHT22;58514;48.398;-4.274;2022-07-30T12:43:41;23.60;70.60
70269;DHT22;58514;48.398;-4.274;2022-07-30T12:46:11;23.60;69.70
70269;DHT22;58514;48.398;-4.274;2022-07-30T12:48:37;23.60;69.90
70269;DHT22;58514;48.398;-4.274;2022-07-30T12:51:12;23.50;69.30
70269;DHT22;58514;48.398;-4.274;2022-07-30T12:53:37;23.50;69.70
70269;DHT22;58514;48.398;-4.274;2022-07-30T12:56:10;23.40;69.50
70269;DHT22;58514;48.398;-4.274;2022-07-30T12:58:36;23.40;69.70
70269;DHT22;58514;48.398;-4.274;2022-07-30T13:01:02;23.40;70.40
70269;DHT22;58514;48.398;-4.274;2022-07-30T13:03:28;23.40;70.50
70269;DHT22;58514;48.398;-4.274;2022-07-30T13:06:10;23.60;71.20
70269;DHT22;58514;48.398;-4.274;2022-07-30T13:08:45;23.70;70.40
70269;DHT22;58514;48.398;-4.274;2022-07-30T13:11:11;23.80;69.50
70269;DHT22;58514;48.398;-4.274;2022-07-30T13:13:37;23.80;69.50
70269;DHT22;58514;48.398;-4.274;2022-07-30T13:16:03;23.80;69.40
70269;DHT22;58514;48.398;-4.274;2022-07-30T13:18:30;23.70;69.40
70269;DHT22;58514;48.398;-4.274;2022-07-30T13:20:56;23.70;69.40
70269;DHT22;58514;48.398;-4.274;2022-07-30T13:23:22;23.70;69.70
70269;DHT22;58514;48.398;-4.274;2022-07-30T13:25:48;23.70;69.70
70269;DHT22;58514;48.398;-4.274;2022-07-30T13:28:13;23.70;70.00
70269;DHT22;58514;48.398;-4.274;2022-07-30T13:30:39;23.70;70.20
70269;DHT22;58514;48.398;-4.274;2022-07-30T13:33:04;23.60;70.10
70269;DHT22;58514;48.398;-4.274;2022-07-30T13:35:30;23.60;69.90
70269;DHT22;58514;48.398;-4.274;2022-07-30T13:37:55;23.60;70.00
70269;DHT22;58514;48.398;-4.274;2022-07-30T13:40:21;23.50;70.10
70269;DHT22;58514;48.398;-4.274;2022-07-30T13:42:47;23.50;70.80
70269;DHT22;58514;48.398;-4.274;2022-07-30T13:45:12;23.70;71.30
70269;DHT22;58514;48.398;-4.274;2022-07-30T13:47:38;23.90;71.20
70269;DHT22;58514;48.398;-4.274;2022-07-30T13:50:04;24.00;70.60
70269;DHT22;58514;48.398;-4.274;2022-07-30T13:52:29;24.20;70.00
70269;DHT22;58514;48.398;-4.274;2022-07-30T13:54:55;24.20;69.60
70269;DHT22;58514;48.398;-4.274;2022-07-30T13:57:20;24.30;68.90
70269;DHT22;58514;48.398;-4.274;2022-07-30T13:59:46;24.30;68.60
70269;DHT22;58514;48.398;-4.274;2022-07-30T14:02:11;24.40;69.20
70269;DHT22;58514;48.398;-4.274;2022-07-30T14:04:37;24.50;68.60
70269;DHT22;58514;48.398;-4.274;2022-07-30T14:07:03;24.50;67.70
70269;DHT22;58514;48.398;-4.274;2022-07-30T14:09:28;24.40;67.80
70269;DHT22;58514;48.398;-4.274;2022-07-30T14:11:54;24.40;68.40
70269;DHT22;58514;48.398;-4.274;2022-07-30T14:14:20;24.50;69.00
70269;DHT22;58514;48.398;-4.274;2022-07-30T14:16:47;24.40;67.30
70269;DHT22;58514;48.398;-4.274;2022-07-30T14:19:15;24.30;67.30
70269;DHT22;58514;48.398;-4.274;2022-07-30T14:21:41;24.20;67.40
70269;DHT22;58514;48.398;-4.274;2022-07-30T14:24:06;24.00;68.00
70269;DHT22;58514;48.398;-4.274;2022-07-30T14:26:32;23.90;68.30
70269;DHT22;58514;48.398;-4.274;2022-07-30T14:28:58;23.80;68.90
70269;DHT22;58514;48.398;-4.274;2022-07-30T14:31:23;23.70;68.90
70269;DHT22;58514;48.398;-4.274;2022-07-30T14:33:49;23.70;69.30
70269;DHT22;58514;48.398;-4.274;2022-07-30T14:36:15;23.70;69.40
70269;DHT22;58514;48.398;-4.274;2022-07-30T14:38:41;23.70;69.50
70269;DHT22;58514;48.398;-4.274;2022-07-30T14:41:06;23.70;69.40
70269;DHT22;58514;48.398;-4.274;2022-07-30T14:43:33;23.70;69.50
70269;DHT22;58514;48.398;-4.274;2022-07-30T14:45:58;23.70;69.50
70269;DHT22;58514;48.398;-4.274;2022-07-30T14:48:24;23.70;69.30
70269;DHT22;58514;48.398;-4.274;2022-07-30T14:50:50;23.70;69.30
70269;DHT22;58514;48.398;-4.274;2022-07-30T14:53:16;23.70;69.80
70269;DHT22;58514;48.398;-4.274;2022-07-30T14:55:41;23.70;70.00
70269;DHT22;58514;48.398;-4.274;2022-07-30T14:58:07;23.80;69.80
70269;DHT22;58514;48.398;-4.274;2022-07-30T15:00:32;23.80;69.60
70269;DHT22;58514;48.398;-4.274;2022-07-30T15:02:58;23.80;69.30
70269;DHT22;58514;48.398;-4.274;2022-07-30T15:05:24;23.70;69.30
70269;DHT22;58514;48.398;-4.274;2022-07-30T15:07:49;23.70;69.50
70269;DHT22;58514;48.398;-4.274;2022-07-30T15:10:15;23.70;69.40
70269;DHT22;58514;48.398;-4.274;2022-07-30T15:12:40;23.60;69.50
70269;DHT22;58514;48.398;-4.274;2022-07-30T15:15:06;23.50;70.60
70269;DHT22;58514;48.398;-4.274;2022-07-30T15:17:33;23.40;69.70
70269;DHT22;58514;48.398;-4.274;2022-07-30T15:19:58;23.40;70.80
70269;DHT22;58514;48.398;-4.274;2022-07-30T15:22:25;23.40;70.80
70269;DHT22;58514;48.398;-4.274;2022-07-30T15:24:51;23.40;70.80
70269;DHT22;58514;48.398;-4.274;2022-07-30T15:27:16;23.40;70.40
70269;DHT22;58514;48.398;-4.274;2022-07-30T15:29:42;23.40;70.60
70269;DHT22;58514;48.398;-4.274;2022-07-30T15:32:08;23.40;70.70
70269;DHT22;58514;48.398;-4.274;2022-07-30T15:34:34;23.30;70.50
70269;DHT22;58514;48.398;-4.274;2022-07-30T15:37:00;23.20;70.60
70269;DHT22;58514;48.398;-4.274;2022-07-30T15:39:26;23.20;70.70
70269;DHT22;58514;48.398;-4.274;2022-07-30T15:41:54;23.10;71.00